Terminal Aerodrome Forecast
Issued by NWS Grand Forks, ND

Home | Current Version | Previous Version | Text Only | Print | Product List | Glossary On
Versions: 1 2 3 4 5 6 7 8 9 10 11 12
704
FTUS43 KFGF 010520
TAFFAR
TAF
KFAR 010520Z 0106/0206 VRB06KT P6SM BKN250
     FM011500 01015G23KT P6SM BKN200
     FM020200 35009KT P6SM BKN120=

USA.gov is the U.S. government's official web portal to all federal, state and local government web resources and services.